Clark Hill, Kentucky
Current Conditions -  °F | °C
As of 8:30 AM on Monday 22 Dec 2014 (Local Time) from KSYM Reporting Station
Overcast Overcast  
Wind Chill: 39°   Ceiling: 3400
Heat Index: 39°   Visibility: 10mi
Dew Point: 30°   Wind: 3mph
Humidity: 70%   Direction: NA
Pressure: 30.05"   Gusts: NA
Location:  38.3543°N, 83.1837°W
Report Text: KSYM 221330Z AUTO VRB03KT 10SM OVC034 04/M01 A3005 RMK AO2
Loading
Personal Weather Stations






























Interactive Weather Map New forecast layout! Learn more

10-Day Weather Forecast

Advertisements
Track Severe Weather on mobile